createdAt,value
2019-02-24T00:01:12.801Z,2.52
2019-02-24T00:02:12.761Z,2.57
2019-02-24T00:04:08.633Z,2.52
2019-02-24T00:05:08.595Z,2.45
2019-02-24T00:07:03.449Z,2.46
2019-02-24T00:08:03.413Z,2.45
2019-02-24T00:09:58.269Z,2.41
2019-02-24T00:10:58.237Z,2.39
2019-02-24T00:12:54.104Z,2.45
2019-02-24T00:13:54.065Z,2.46
2019-02-24T00:15:49.221Z,2.39
2019-02-24T00:16:49.181Z,2.43
2019-02-24T00:18:44.041Z,2.31
2019-02-24T00:19:44.004Z,2.31
2019-02-24T00:21:38.867Z,2.25
2019-02-24T00:22:38.829Z,2.38
2019-02-24T00:24:33.709Z,2.36
2019-02-24T00:25:33.657Z,2.45
2019-02-24T00:27:28.518Z,2.42
2019-02-24T00:28:28.481Z,2.42
2019-02-24T00:30:23.342Z,2.28
2019-02-24T00:31:23.306Z,2.30
2019-02-24T00:33:18.161Z,2.36
2019-02-24T00:34:18.134Z,2.31
2019-02-24T00:36:12.948Z,2.16
2019-02-24T00:37:12.889Z,2.07
2019-02-24T00:39:07.748Z,1.88
2019-02-24T00:40:07.712Z,1.87
2019-02-24T00:42:02.581Z,1.83
2019-02-24T00:43:02.533Z,1.86
2019-02-24T00:44:57.387Z,1.93
2019-02-24T00:45:57.347Z,1.90
2019-02-24T00:47:52.693Z,2.02
2019-02-24T00:48:52.645Z,1.95
2019-02-24T00:50:48.501Z,1.93
2019-02-24T00:51:48.491Z,1.93
2019-02-24T00:53:43.331Z,1.88
2019-02-24T00:54:43.289Z,2.00
2019-02-24T00:56:39.635Z,2.09
2019-02-24T00:57:39.604Z,2.00
2019-02-24T00:59:34.471Z,2.17
2019-02-24T01:00:34.428Z,2.16
2019-02-24T01:02:29.283Z,2.25
2019-02-24T01:03:29.287Z,2.21
2019-02-24T01:05:24.115Z,2.31
2019-02-24T01:06:24.069Z,2.31
2019-02-24T01:08:18.474Z,2.34
2019-02-24T01:09:18.442Z,2.27
2019-02-24T01:11:13.293Z,2.48
2019-02-24T01:12:13.262Z,2.39
2019-02-24T01:14:08.118Z,2.42
2019-02-24T01:15:08.089Z,2.41
2019-02-24T01:17:02.814Z,2.42
2019-02-24T01:18:02.768Z,2.31
2019-02-24T01:19:57.629Z,2.39
2019-02-24T01:20:57.594Z,2.45
2019-02-24T01:22:52.455Z,2.42
2019-02-24T01:23:52.410Z,2.42
2019-02-24T01:25:47.262Z,2.53
2019-02-24T01:26:47.230Z,2.56
2019-02-24T01:28:42.103Z,2.42
2019-02-24T01:29:42.047Z,2.38
2019-02-24T01:31:36.908Z,2.41
2019-02-24T01:32:36.872Z,2.43
2019-02-24T01:34:31.739Z,2.49
2019-02-24T01:35:31.699Z,2.46
2019-02-24T01:37:26.548Z,2.45
2019-02-24T01:38:26.521Z,2.46
2019-02-24T01:40:21.369Z,2.49
2019-02-24T01:41:21.333Z,2.48
2019-02-24T01:43:17.186Z,2.54
2019-02-24T01:44:17.150Z,2.48
2019-02-24T01:46:12.033Z,2.49
2019-02-24T01:47:11.978Z,2.56
2019-02-24T01:49:25.664Z,2.54
2019-02-24T01:50:25.619Z,2.56
2019-02-24T01:52:20.503Z,2.66
2019-02-24T01:53:20.445Z,2.66
2019-02-24T01:55:15.307Z,2.66
2019-02-24T01:56:15.272Z,2.59
2019-02-24T01:58:10.543Z,2.64
2019-02-24T01:59:10.503Z,2.78
2019-02-24T02:01:06.343Z,2.66
2019-02-24T02:02:06.309Z,2.49
2019-02-24T02:04:02.165Z,2.56
2019-02-24T02:05:02.126Z,2.56
2019-02-24T02:06:56.994Z,2.53
2019-02-24T02:07:56.950Z,2.59
2019-02-24T02:09:52.838Z,2.63
2019-02-24T02:10:52.777Z,2.61
2019-02-24T02:12:49.107Z,2.59
2019-02-24T02:13:49.080Z,2.53
2019-02-24T02:15:43.933Z,2.56
2019-02-24T02:16:43.891Z,2.45
2019-02-24T02:18:39.737Z,2.49
2019-02-24T02:19:39.691Z,2.57
2019-02-24T02:21:35.219Z,2.56
2019-02-24T02:22:35.197Z,2.53
2019-02-24T02:24:30.039Z,2.52
2019-02-24T02:25:30.001Z,2.43
2019-02-24T02:27:24.901Z,2.43
2019-02-24T02:28:24.825Z,2.48
2019-02-24T02:30:19.676Z,2.43
2019-02-24T02:31:19.640Z,2.49
2019-02-24T02:33:14.520Z,2.35
2019-02-24T02:34:14.464Z,2.39
2019-02-24T02:36:10.321Z,2.28
2019-02-24T02:37:10.293Z,2.30
2019-02-24T02:39:05.152Z,2.36
2019-02-24T02:40:05.116Z,2.30
2019-02-24T02:41:59.981Z,2.35
2019-02-24T02:42:59.948Z,2.34
2019-02-24T02:44:54.820Z,2.28
2019-02-24T02:45:54.770Z,2.28
2019-02-24T02:47:49.625Z,2.30
2019-02-24T02:48:49.589Z,2.31
2019-02-24T02:50:44.462Z,2.43
2019-02-24T02:51:44.415Z,2.42
2019-02-24T02:53:39.282Z,2.48
2019-02-24T02:54:39.244Z,2.52
2019-02-24T02:56:33.534Z,2.56
2019-02-24T02:57:33.486Z,2.53
2019-02-24T02:59:28.339Z,2.54
2019-02-24T03:00:28.308Z,2.56
2019-02-24T03:02:24.739Z,2.66
2019-02-24T03:03:23.126Z,2.60
2019-02-24T03:05:17.987Z,2.52
2019-02-24T03:06:17.955Z,2.61
2019-02-24T03:08:12.819Z,2.78
2019-02-24T03:09:12.782Z,2.69
2019-02-24T03:11:07.585Z,2.75
2019-02-24T03:12:07.549Z,2.74
2019-02-24T03:14:02.412Z,2.74
2019-02-24T03:15:02.376Z,2.71
2019-02-24T03:16:57.225Z,2.71
2019-02-24T03:17:57.182Z,2.69
2019-02-24T03:19:52.036Z,2.64
2019-02-24T03:20:52.001Z,2.64
2019-02-24T03:22:47.872Z,2.63
2019-02-24T03:23:47.824Z,2.64
2019-02-24T03:25:42.697Z,2.61
2019-02-24T03:26:42.654Z,2.64
2019-02-24T03:28:37.524Z,2.78
2019-02-24T03:29:37.477Z,2.78
2019-02-24T03:31:32.593Z,2.69
2019-02-24T03:32:32.542Z,2.64
2019-02-24T03:34:46.400Z,2.78
2019-02-24T03:35:46.356Z,2.77
2019-02-24T03:37:40.926Z,2.71
2019-02-24T03:38:40.886Z,2.64
2019-02-24T03:40:54.733Z,2.79
2019-02-24T03:41:54.712Z,2.84
2019-02-24T03:43:50.061Z,2.66
2019-02-24T03:44:50.021Z,2.69
2019-02-24T03:46:45.364Z,2.78
2019-02-24T03:47:45.339Z,2.75
2019-02-24T03:49:40.198Z,2.61
2019-02-24T03:50:40.161Z,2.67
2019-02-24T03:52:35.022Z,2.64
2019-02-24T03:53:34.986Z,2.67
2019-02-24T03:55:30.222Z,2.63
2019-02-24T03:56:30.171Z,2.72
2019-02-24T03:58:25.037Z,2.72
2019-02-24T03:59:25.006Z,2.64
2019-02-24T04:01:19.888Z,2.72
2019-02-24T04:02:19.837Z,2.77
2019-02-24T04:04:15.189Z,2.60
2019-02-24T04:05:15.162Z,2.74
2019-02-24T04:07:09.893Z,2.75
2019-02-24T04:08:09.859Z,2.78
2019-02-24T04:10:04.715Z,2.79
2019-02-24T04:11:04.683Z,2.64
2019-02-24T04:13:18.237Z,2.52
2019-02-24T04:14:18.191Z,2.61
2019-02-24T04:16:13.544Z,2.69
2019-02-24T04:17:13.519Z,2.67
2019-02-24T04:19:08.398Z,2.67
2019-02-24T04:20:08.321Z,2.64
2019-02-24T04:22:03.815Z,2.61
2019-02-24T04:23:03.781Z,2.64
2019-02-24T04:24:59.650Z,2.67
2019-02-24T04:25:59.609Z,2.66
2019-02-24T04:27:54.469Z,2.67
2019-02-24T04:28:54.436Z,2.53
2019-02-24T04:30:49.285Z,2.52
2019-02-24T04:31:49.245Z,2.63
2019-02-24T04:33:44.101Z,2.67
2019-02-24T04:34:44.065Z,2.63
2019-02-24T04:36:38.918Z,2.60
2019-02-24T04:37:38.880Z,2.57
2019-02-24T04:39:33.722Z,2.69
2019-02-24T04:40:33.694Z,2.66
2019-02-24T04:42:28.555Z,2.66
2019-02-24T04:43:28.522Z,2.66
2019-02-24T04:45:23.372Z,2.71
2019-02-24T04:46:23.328Z,2.69
2019-02-24T04:48:18.186Z,2.71
2019-02-24T04:49:18.148Z,2.66
2019-02-24T04:51:13.013Z,2.66
2019-02-24T04:52:12.975Z,2.66
2019-02-24T04:54:07.859Z,2.66
2019-02-24T04:55:07.797Z,2.63
2019-02-24T04:57:02.651Z,2.60
2019-02-24T04:58:02.625Z,2.59
2019-02-24T04:59:57.986Z,2.59
2019-02-24T05:00:57.940Z,2.57
2019-02-24T05:02:52.809Z,2.49
2019-02-24T05:03:52.769Z,2.57
2019-02-24T05:05:48.599Z,2.59
2019-02-24T05:06:48.560Z,2.59
2019-02-24T05:08:43.299Z,2.41
2019-02-24T05:09:43.268Z,2.46
2019-02-24T05:11:38.121Z,2.35
2019-02-24T05:12:38.095Z,2.30
2019-02-24T05:14:32.969Z,2.16
2019-02-24T05:15:32.913Z,2.18
2019-02-24T05:17:27.778Z,2.18
2019-02-24T05:18:27.737Z,2.10
2019-02-24T05:20:22.585Z,2.14
2019-02-24T05:21:22.554Z,2.14
2019-02-24T05:23:17.403Z,2.23
2019-02-24T05:24:17.372Z,2.18
2019-02-24T05:26:12.223Z,2.31
2019-02-24T05:27:12.189Z,2.31
2019-02-24T05:29:07.049Z,2.25
2019-02-24T05:30:06.993Z,2.23
2019-02-24T05:32:01.843Z,2.31
2019-02-24T05:33:01.808Z,2.27
2019-02-24T05:34:57.682Z,2.25
2019-02-24T05:35:57.628Z,2.24
2019-02-24T05:37:52.483Z,2.25
2019-02-24T05:38:52.447Z,2.28
2019-02-24T05:40:48.306Z,2.17
2019-02-24T05:41:48.245Z,2.18
2019-02-24T05:43:42.443Z,2.31
2019-02-24T05:44:42.408Z,2.21
2019-02-24T05:46:37.261Z,2.31
2019-02-24T05:47:37.230Z,2.31
2019-02-24T05:49:32.077Z,2.30
2019-02-24T05:50:32.045Z,2.28
2019-02-24T05:52:26.931Z,2.31
2019-02-24T05:53:26.868Z,2.34
2019-02-24T05:55:22.217Z,2.43
2019-02-24T05:56:22.181Z,2.38
2019-02-24T05:58:17.054Z,2.38
2019-02-24T05:59:17.000Z,2.38
2019-02-24T06:01:12.832Z,2.38
2019-02-24T06:02:12.792Z,2.43
2019-02-24T06:04:08.678Z,2.42
2019-02-24T06:05:08.617Z,2.41
2019-02-24T06:07:04.477Z,2.52
2019-02-24T06:08:04.444Z,2.54
2019-02-24T06:09:59.330Z,2.71
2019-02-24T06:10:59.267Z,2.78
2019-02-24T06:12:54.127Z,2.74
2019-02-24T06:13:54.091Z,2.71
2019-02-24T06:15:49.961Z,2.67
2019-02-24T06:16:49.916Z,2.64
2019-02-24T06:18:44.769Z,2.59
2019-02-24T06:19:44.733Z,2.56
2019-02-24T06:21:39.588Z,2.41
2019-02-24T06:22:39.572Z,2.31
2019-02-24T06:24:34.501Z,2.28
2019-02-24T06:25:34.361Z,2.36
2019-02-24T06:27:29.355Z,2.39
2019-02-24T06:28:29.302Z,2.28
2019-02-24T06:30:24.148Z,2.28
2019-02-24T06:31:24.111Z,2.35
2019-02-24T06:33:18.967Z,2.43
2019-02-24T06:34:18.930Z,2.41
2019-02-24T06:36:13.777Z,2.60
2019-02-24T06:37:13.747Z,2.48
2019-02-24T06:39:07.879Z,2.60
2019-02-24T06:40:07.829Z,2.59
2019-02-24T06:42:02.686Z,2.61
2019-02-24T06:43:02.644Z,2.63
2019-02-24T06:44:57.520Z,2.59
2019-02-24T06:45:57.477Z,2.69
2019-02-24T06:47:52.341Z,2.66
2019-02-24T06:48:52.302Z,2.63
2019-02-24T06:50:47.174Z,2.63
2019-02-24T06:51:47.114Z,2.64
2019-02-24T06:53:41.962Z,2.71
2019-02-24T06:54:41.931Z,2.67
2019-02-24T06:56:36.796Z,2.61
2019-02-24T06:57:36.744Z,2.66
2019-02-24T06:59:31.615Z,2.75
2019-02-24T07:00:31.566Z,2.64
2019-02-24T07:02:27.419Z,2.66
2019-02-24T07:03:27.379Z,2.77
2019-02-24T07:05:22.242Z,2.75
2019-02-24T07:06:22.227Z,2.77
2019-02-24T07:08:17.064Z,2.78
2019-02-24T07:09:17.039Z,2.82
2019-02-24T07:11:11.881Z,2.75
2019-02-24T07:12:11.849Z,2.79
2019-02-24T07:14:06.711Z,2.79
2019-02-24T07:15:06.672Z,2.77
2019-02-24T07:17:01.531Z,2.74
2019-02-24T07:18:01.484Z,2.87
2019-02-24T07:19:57.055Z,2.77
2019-02-24T07:20:57.010Z,2.79
2019-02-24T07:22:51.920Z,2.81
2019-02-24T07:23:51.941Z,2.87
2019-02-24T07:25:46.899Z,2.95
2019-02-24T07:26:46.862Z,2.93
2019-02-24T07:28:41.712Z,2.85
2019-02-24T07:29:41.677Z,2.95
2019-02-24T07:31:36.526Z,2.93
2019-02-24T07:32:36.503Z,2.90
2019-02-24T07:34:31.355Z,2.96
2019-02-24T07:35:31.316Z,3.08
2019-02-24T07:37:26.202Z,3.15
2019-02-24T07:38:26.144Z,3.18
2019-02-24T07:40:21.006Z,3.31
2019-02-24T07:41:20.976Z,3.45
2019-02-24T07:43:15.832Z,3.58
2019-02-24T07:44:15.792Z,3.78
2019-02-24T07:46:10.802Z,3.96
2019-02-24T07:47:10.767Z,4.05
2019-02-24T07:49:06.622Z,4.30
2019-02-24T07:50:06.584Z,4.36
2019-02-24T07:51:06.568Z,4.47
2019-02-24T07:52:06.548Z,4.60
2019-02-24T07:53:06.532Z,4.65
2019-02-24T07:54:06.518Z,4.84
2019-02-24T07:55:06.501Z,4.84
2019-02-24T07:56:06.481Z,4.97
2019-02-24T07:57:06.463Z,5.07
2019-02-24T07:58:06.449Z,5.09
2019-02-24T07:59:06.435Z,5.28
2019-02-24T08:00:06.419Z,5.27
2019-02-24T08:01:06.406Z,5.24
2019-02-24T08:02:06.387Z,5.28
2019-02-24T08:03:06.366Z,5.25
2019-02-24T08:04:06.346Z,5.28
2019-02-24T08:05:06.336Z,5.30
2019-02-24T08:06:06.318Z,5.28
2019-02-24T08:07:06.301Z,5.27
2019-02-24T08:08:06.288Z,5.25
2019-02-24T08:09:06.266Z,5.40
2019-02-24T08:10:06.251Z,5.45
2019-02-24T08:11:06.231Z,5.51
2019-02-24T08:12:06.219Z,5.63
2019-02-24T08:13:06.209Z,5.72
2019-02-24T08:14:06.186Z,5.79
2019-02-24T08:15:06.172Z,5.90
2019-02-24T08:16:06.154Z,6.12
2019-02-24T08:17:06.144Z,6.38
2019-02-24T08:18:06.123Z,6.58
2019-02-24T08:19:06.106Z,6.80
2019-02-24T08:20:06.092Z,6.92
2019-02-24T08:21:06.075Z,6.98
2019-02-24T08:22:06.063Z,7.15
2019-02-24T08:23:06.051Z,7.24
2019-02-24T08:24:06.037Z,7.31
2019-02-24T08:25:06.011Z,7.43
2019-02-24T08:26:05.996Z,7.57
2019-02-24T08:27:05.981Z,7.67
2019-02-24T08:28:05.959Z,7.80
2019-02-24T08:29:05.952Z,7.86
2019-02-24T08:30:05.931Z,7.90
2019-02-24T08:31:05.916Z,8.02
2019-02-24T08:32:05.902Z,8.16
2019-02-24T08:33:05.884Z,8.34
2019-02-24T08:34:05.877Z,8.28
2019-02-24T08:35:05.857Z,8.29
2019-02-24T08:36:05.838Z,8.41
2019-02-24T08:37:05.828Z,8.50
2019-02-24T08:38:05.814Z,8.50
2019-02-24T08:39:05.794Z,8.40
2019-02-24T08:40:05.778Z,8.30
2019-02-24T08:41:05.766Z,8.28
2019-02-24T08:42:05.752Z,8.29
2019-02-24T08:43:05.740Z,8.30
2019-02-24T08:44:05.719Z,8.33
2019-02-24T08:45:05.707Z,8.10
2019-02-24T08:46:05.700Z,8.01
2019-02-24T08:47:05.677Z,8.04
2019-02-24T08:48:05.664Z,8.02
2019-02-24T08:49:05.645Z,8.04
2019-02-24T08:50:05.634Z,8.19
2019-02-24T08:51:05.616Z,8.33
2019-02-24T08:52:05.598Z,8.38
2019-02-24T08:53:05.589Z,8.26
2019-02-24T08:54:05.572Z,8.38
2019-02-24T08:55:05.558Z,8.43
2019-02-24T08:56:05.543Z,8.61
2019-02-24T08:57:05.528Z,8.73
2019-02-24T08:58:05.520Z,8.99
2019-02-24T08:59:05.503Z,9.08
2019-02-24T09:00:05.492Z,9.32
2019-02-24T09:01:05.470Z,9.43
2019-02-24T09:02:05.458Z,9.47
2019-02-24T09:03:05.444Z,9.51
2019-02-24T09:04:05.449Z,9.68
2019-02-24T09:05:05.418Z,9.78
2019-02-24T09:06:05.401Z,9.91
2019-02-24T09:07:05.383Z,9.99
2019-02-24T09:08:05.373Z,10.07
2019-02-24T09:09:05.357Z,10.32
2019-02-24T09:10:05.344Z,10.41
2019-02-24T09:11:05.327Z,10.51
2019-02-24T09:12:05.315Z,10.70
2019-02-24T09:13:05.301Z,10.79
2019-02-24T09:14:05.287Z,10.92
2019-02-24T09:15:05.273Z,11.06
2019-02-24T09:16:05.259Z,11.11
2019-02-24T09:17:05.244Z,11.18
2019-02-24T09:18:05.234Z,11.37
2019-02-24T09:19:05.218Z,11.62
2019-02-24T09:20:05.207Z,11.72
2019-02-24T09:21:05.202Z,11.72
2019-02-24T09:22:05.191Z,11.91
2019-02-24T09:23:05.161Z,12.04
2019-02-24T09:24:05.159Z,12.16
2019-02-24T09:25:05.144Z,12.21
2019-02-24T09:26:05.129Z,12.39
2019-02-24T09:27:05.115Z,12.47
2019-02-24T09:28:05.102Z,12.54
2019-02-24T09:29:05.090Z,12.53
2019-02-24T09:30:05.074Z,12.65
2019-02-24T09:31:05.060Z,12.78
2019-02-24T09:32:05.046Z,12.86
2019-02-24T09:33:05.036Z,12.85
2019-02-24T09:34:05.025Z,12.86
2019-02-24T09:35:05.013Z,13.00
2019-02-24T09:36:04.996Z,13.08
2019-02-24T09:37:04.988Z,13.15
2019-02-24T09:38:04.972Z,13.15
2019-02-24T09:39:04.961Z,13.29
2019-02-24T09:40:04.945Z,13.29
2019-02-24T09:41:04.935Z,13.33
2019-02-24T09:42:04.924Z,13.20
2019-02-24T09:43:04.910Z,13.33
2019-02-24T09:44:04.900Z,13.30
2019-02-24T09:45:04.883Z,13.26
2019-02-24T09:46:04.873Z,13.29
2019-02-24T09:47:04.864Z,13.46
2019-02-24T09:48:04.855Z,13.51
2019-02-24T09:49:04.839Z,13.59
2019-02-24T09:50:04.826Z,13.64
2019-02-24T09:51:04.814Z,13.85
2019-02-24T09:52:04.802Z,13.92
2019-02-24T09:53:04.793Z,14.04
2019-02-24T09:54:04.778Z,14.06
2019-02-24T09:55:04.767Z,14.22
2019-02-24T09:56:04.761Z,14.33
2019-02-24T09:57:04.746Z,14.36
2019-02-24T09:58:04.735Z,14.43
2019-02-24T09:59:04.723Z,14.54
2019-02-24T10:00:04.712Z,14.65
2019-02-24T10:01:10.653Z,14.72
2019-02-24T10:02:04.698Z,14.94
2019-02-24T10:03:04.675Z,14.92
2019-02-24T10:04:04.664Z,14.98
2019-02-24T10:05:04.655Z,15.07
2019-02-24T10:06:04.653Z,15.25
2019-02-24T10:07:04.635Z,15.25
2019-02-24T10:08:04.623Z,15.39
2019-02-24T10:09:04.611Z,15.50
2019-02-24T10:10:04.602Z,15.59
2019-02-24T10:11:04.594Z,15.57
2019-02-24T10:12:04.578Z,15.60
2019-02-24T10:13:04.562Z,15.71
2019-02-24T10:14:04.559Z,15.74
2019-02-24T10:15:04.546Z,15.75
2019-02-24T10:16:04.534Z,15.80
2019-02-24T10:17:04.526Z,15.76
2019-02-24T10:18:04.512Z,15.87
2019-02-24T10:19:04.501Z,16.00
2019-02-24T10:20:04.493Z,16.04
2019-02-24T10:21:04.485Z,16.11
2019-02-24T10:22:04.472Z,16.17
2019-02-24T10:23:04.463Z,16.30
2019-02-24T10:24:04.453Z,16.28
2019-02-24T10:25:05.926Z,16.35
2019-02-24T10:26:04.429Z,16.52
2019-02-24T10:27:04.420Z,16.34
2019-02-24T10:28:04.411Z,16.30
2019-02-24T10:29:04.394Z,16.27
2019-02-24T10:30:04.386Z,16.34
2019-02-24T10:31:04.381Z,16.35
2019-02-24T10:32:04.368Z,16.45
2019-02-24T10:33:04.362Z,16.49
2019-02-24T10:34:04.352Z,16.48
2019-02-24T10:35:04.339Z,16.49
2019-02-24T10:36:04.329Z,16.64
2019-02-24T10:37:04.321Z,16.60
2019-02-24T10:38:04.309Z,16.78
2019-02-24T10:39:04.296Z,16.85
2019-02-24T10:40:04.291Z,16.96
2019-02-24T10:41:04.285Z,16.86
2019-02-24T10:42:04.266Z,16.64
2019-02-24T10:43:04.257Z,16.60
2019-02-24T10:44:04.251Z,16.50
2019-02-24T10:45:04.239Z,16.58
2019-02-24T10:46:04.231Z,16.73
2019-02-24T10:47:04.222Z,16.73
2019-02-24T10:48:13.517Z,16.85
2019-02-24T10:49:04.207Z,16.96
2019-02-24T10:50:04.191Z,17.04
2019-02-24T10:51:04.182Z,17.12
2019-02-24T10:52:04.170Z,17.21
2019-02-24T10:53:04.162Z,17.36
2019-02-24T10:54:04.158Z,17.48
2019-02-24T10:55:04.153Z,17.41
2019-02-24T10:56:04.151Z,17.56
2019-02-24T10:57:04.124Z,17.75
2019-02-24T10:58:04.114Z,17.92
2019-02-24T10:59:04.117Z,17.97
2019-02-24T11:00:04.099Z,18.25
2019-02-24T11:01:04.087Z,18.37
2019-02-24T11:02:04.083Z,18.51
2019-02-24T11:03:04.081Z,18.70
2019-02-24T11:04:04.061Z,18.87
2019-02-24T11:05:04.055Z,19.00
2019-02-24T11:06:04.056Z,19.00
2019-02-24T11:07:04.036Z,19.10
2019-02-24T11:08:04.035Z,18.92
2019-02-24T11:09:04.012Z,18.91
2019-02-24T11:10:04.125Z,18.90
2019-02-24T11:11:04.005Z,18.67
2019-02-24T11:12:03.993Z,18.55
2019-02-24T11:13:03.987Z,18.42
2019-02-24T11:14:03.977Z,18.14
2019-02-24T11:15:03.964Z,17.99
2019-02-24T11:16:03.952Z,17.89
2019-02-24T11:17:03.944Z,17.78
2019-02-24T11:18:03.936Z,17.77
2019-02-24T11:19:03.926Z,17.63
2019-02-24T11:20:03.927Z,17.37
2019-02-24T11:21:03.920Z,17.31
2019-02-24T11:22:03.907Z,17.19
2019-02-24T11:23:03.895Z,17.03
2019-02-24T11:24:03.881Z,16.81
2019-02-24T11:25:03.873Z,16.68
2019-02-24T11:26:03.869Z,16.31
2019-02-24T11:27:03.860Z,16.11
2019-02-24T11:28:03.847Z,15.90
2019-02-24T11:29:03.843Z,15.76
2019-02-24T11:30:03.830Z,15.67
2019-02-24T11:31:03.820Z,15.57
2019-02-24T11:32:03.809Z,15.56
2019-02-24T11:33:03.804Z,15.62
2019-02-24T11:34:03.803Z,15.53
2019-02-24T11:35:03.784Z,15.62
2019-02-24T11:36:03.772Z,15.62
2019-02-24T11:37:03.766Z,15.62
2019-02-24T11:38:03.756Z,15.84
2019-02-24T11:39:03.747Z,15.86
2019-02-24T11:40:03.731Z,15.93
2019-02-24T11:41:03.734Z,15.89
2019-02-24T11:42:03.712Z,15.92
2019-02-24T11:43:03.702Z,15.60
2019-02-24T11:44:03.696Z,15.46
2019-02-24T11:45:03.687Z,15.16
2019-02-24T11:46:03.686Z,15.03
2019-02-24T11:47:03.669Z,14.83
2019-02-24T11:48:03.667Z,14.69
2019-02-24T11:49:03.649Z,14.47
2019-02-24T11:50:03.637Z,14.32
2019-02-24T11:51:03.631Z,14.21
2019-02-24T11:52:04.150Z,14.06
2019-02-24T11:53:03.613Z,13.88
2019-02-24T11:54:03.599Z,13.64
2019-02-24T11:55:03.590Z,13.44
2019-02-24T11:56:03.574Z,13.33
2019-02-24T11:57:03.594Z,13.29
2019-02-24T11:58:03.556Z,13.26
2019-02-24T11:59:03.551Z,13.44
2019-02-24T12:00:03.533Z,13.39
2019-02-24T12:01:03.527Z,13.49
2019-02-24T12:02:03.511Z,13.48
2019-02-24T12:03:03.504Z,13.67
2019-02-24T12:04:03.494Z,13.75
2019-02-24T12:05:03.481Z,13.89
2019-02-24T12:06:03.471Z,14.00
2019-02-24T12:07:03.466Z,14.07
2019-02-24T12:08:03.452Z,14.29
2019-02-24T12:09:05.415Z,14.35
2019-02-24T12:10:03.436Z,14.45
2019-02-24T12:11:03.414Z,14.60
2019-02-24T12:12:03.405Z,14.70
2019-02-24T12:13:03.395Z,14.80
2019-02-24T12:14:03.388Z,14.91
2019-02-24T12:15:03.373Z,15.01
2019-02-24T12:16:03.367Z,15.09
2019-02-24T12:17:03.353Z,15.20
2019-02-24T12:18:03.342Z,15.31
2019-02-24T12:19:03.336Z,15.31
2019-02-24T12:20:03.319Z,15.56
2019-02-24T12:21:03.317Z,15.74
2019-02-24T12:22:03.296Z,15.76
2019-02-24T12:23:03.291Z,15.71
2019-02-24T12:24:03.276Z,15.65
2019-02-24T12:25:03.271Z,15.65
2019-02-24T12:26:03.264Z,15.67
2019-02-24T12:27:03.252Z,15.68
2019-02-24T12:28:03.242Z,15.65
2019-02-24T12:29:03.226Z,15.60
2019-02-24T12:30:03.225Z,15.53
2019-02-24T12:31:03.206Z,15.54
2019-02-24T12:32:03.196Z,15.60
2019-02-24T12:33:03.188Z,15.62
2019-02-24T12:34:03.180Z,15.51
2019-02-24T12:35:03.168Z,15.50
2019-02-24T12:36:03.158Z,15.54
2019-02-24T12:37:03.156Z,15.51
2019-02-24T12:38:03.139Z,15.41
2019-02-24T12:39:03.125Z,15.34
2019-02-24T12:40:03.113Z,15.19
2019-02-24T12:41:03.103Z,15.23
2019-02-24T12:42:03.095Z,15.03
2019-02-24T12:43:03.083Z,15.07
2019-02-24T12:44:03.074Z,14.96
2019-02-24T12:45:03.069Z,14.77
2019-02-24T12:46:03.054Z,14.72
2019-02-24T12:47:03.042Z,14.61
2019-02-24T12:48:03.036Z,14.51
2019-02-24T12:49:03.024Z,14.55
2019-02-24T12:50:03.806Z,14.55
2019-02-24T12:51:03.001Z,14.46
2019-02-24T12:52:02.993Z,14.45
2019-02-24T12:53:02.981Z,14.45
2019-02-24T12:54:02.971Z,14.36
2019-02-24T12:55:02.965Z,14.35
2019-02-24T12:56:02.947Z,14.39
2019-02-24T12:57:02.938Z,14.36
2019-02-24T12:58:02.929Z,14.32
2019-02-24T12:59:02.916Z,14.37
2019-02-24T13:00:02.904Z,14.28
2019-02-24T13:01:02.896Z,14.40
2019-02-24T13:02:05.773Z,14.40
2019-02-24T13:03:02.874Z,14.39
2019-02-24T13:04:02.861Z,14.37
2019-02-24T13:05:02.849Z,14.39
2019-02-24T13:06:02.844Z,14.40
2019-02-24T13:07:02.830Z,14.33
2019-02-24T13:08:02.823Z,14.39
2019-02-24T13:09:02.813Z,14.39
2019-02-24T13:10:02.799Z,14.06
2019-02-24T13:11:02.785Z,13.99
2019-02-24T13:12:02.773Z,13.91
2019-02-24T13:13:02.770Z,13.95
2019-02-24T13:14:02.753Z,13.95
2019-02-24T13:15:03.406Z,13.77
2019-02-24T13:16:02.736Z,13.75
2019-02-24T13:17:02.727Z,13.71
2019-02-24T13:18:02.710Z,13.62
2019-02-24T13:19:02.703Z,13.33
2019-02-24T13:20:02.691Z,12.96
2019-02-24T13:21:02.679Z,12.92
2019-02-24T13:22:02.669Z,12.86
2019-02-24T13:23:02.662Z,12.93
2019-02-24T13:24:02.650Z,13.01
2019-02-24T13:25:02.630Z,13.05
2019-02-24T13:26:02.626Z,13.12
2019-02-24T13:27:02.614Z,13.04
2019-02-24T13:28:02.602Z,13.15
2019-02-24T13:29:02.591Z,13.23
2019-02-24T13:30:02.586Z,13.32
2019-02-24T13:31:02.573Z,13.39
2019-02-24T13:32:02.560Z,13.49
2019-02-24T13:33:02.548Z,13.64
2019-02-24T13:34:02.531Z,13.85
2019-02-24T13:35:02.528Z,13.92
2019-02-24T13:36:02.517Z,14.06
2019-02-24T13:37:02.503Z,14.32
2019-02-24T13:38:02.492Z,14.32
2019-02-24T13:39:02.482Z,14.55
2019-02-24T13:40:02.468Z,14.62
2019-02-24T13:41:02.458Z,14.78
2019-02-24T13:42:02.446Z,15.03
2019-02-24T13:43:02.432Z,15.16
2019-02-24T13:44:02.416Z,15.17
2019-02-24T13:45:02.416Z,15.23
2019-02-24T13:46:02.416Z,15.23
2019-02-24T13:47:02.391Z,15.13
2019-02-24T13:48:02.381Z,15.14
2019-02-24T13:49:02.371Z,15.41
2019-02-24T13:50:02.357Z,15.34
2019-02-24T13:51:02.351Z,15.34
2019-02-24T13:52:02.339Z,15.44
2019-02-24T13:53:02.327Z,15.46
2019-02-24T13:54:02.320Z,15.49
2019-02-24T13:55:02.304Z,15.43
2019-02-24T13:56:02.295Z,15.53
2019-02-24T13:57:02.284Z,15.51
2019-02-24T13:58:02.272Z,15.50
2019-02-24T13:59:02.264Z,15.57
2019-02-24T14:00:02.253Z,15.56
2019-02-24T14:01:02.242Z,15.53
2019-02-24T14:02:02.228Z,15.59
2019-02-24T14:03:02.221Z,15.51
2019-02-24T14:04:02.219Z,15.35
2019-02-24T14:05:02.203Z,15.21
2019-02-24T14:06:02.195Z,15.09
2019-02-24T14:07:02.177Z,14.99
2019-02-24T14:08:02.174Z,14.99
2019-02-24T14:09:02.161Z,14.94
2019-02-24T14:10:02.148Z,14.91
2019-02-24T14:11:02.137Z,14.80
2019-02-24T14:12:02.135Z,14.83
2019-02-24T14:13:02.124Z,14.70
2019-02-24T14:14:02.106Z,14.47
2019-02-24T14:15:02.094Z,14.32
2019-02-24T14:16:02.082Z,14.15
2019-02-24T14:17:02.076Z,13.91
2019-02-24T14:18:02.068Z,13.77
2019-02-24T14:19:02.057Z,13.70
2019-02-24T14:20:02.043Z,13.64
2019-02-24T14:21:02.038Z,13.64
2019-02-24T14:22:02.022Z,13.66
2019-02-24T14:23:02.008Z,13.63
2019-02-24T14:24:01.998Z,13.55
2019-02-24T14:25:01.986Z,13.51
2019-02-24T14:26:01.980Z,13.52
2019-02-24T14:27:01.968Z,13.44
2019-02-24T14:28:01.951Z,13.46
2019-02-24T14:29:01.949Z,13.46
2019-02-24T14:30:01.934Z,13.44
2019-02-24T14:31:01.923Z,13.49
2019-02-24T14:32:01.911Z,13.45
2019-02-24T14:33:01.899Z,13.32
2019-02-24T14:34:01.894Z,13.39
2019-02-24T14:35:01.883Z,13.36
2019-02-24T14:36:03.164Z,13.26
2019-02-24T14:37:01.861Z,13.28
2019-02-24T14:38:01.844Z,13.23
2019-02-24T14:39:01.832Z,13.25
2019-02-24T14:40:01.821Z,13.25
2019-02-24T14:41:01.811Z,13.17
2019-02-24T14:42:01.800Z,13.22
2019-02-24T14:43:01.787Z,13.17
2019-02-24T14:44:01.777Z,13.17
2019-02-24T14:45:01.762Z,13.05
2019-02-24T14:46:01.754Z,13.17
2019-02-24T14:47:01.746Z,13.03
2019-02-24T14:48:01.734Z,13.07
2019-02-24T14:49:01.717Z,12.97
2019-02-24T14:50:01.709Z,13.01
2019-02-24T14:51:01.694Z,13.00
2019-02-24T14:52:01.684Z,13.01
2019-02-24T14:53:01.674Z,12.85
2019-02-24T14:54:01.665Z,12.93
2019-02-24T14:55:01.650Z,12.92
2019-02-24T14:56:01.640Z,12.85
2019-02-24T14:57:01.622Z,12.85
2019-02-24T14:58:01.612Z,12.83
2019-02-24T14:59:01.607Z,12.85
2019-02-24T15:00:01.594Z,12.71
2019-02-24T15:01:01.581Z,12.71
2019-02-24T15:02:01.573Z,12.64
2019-02-24T15:03:01.561Z,12.67
2019-02-24T15:04:01.549Z,12.72
2019-02-24T15:05:01.539Z,12.70
2019-02-24T15:06:01.527Z,12.60
2019-02-24T15:07:01.514Z,12.54
2019-02-24T15:08:01.494Z,12.39
2019-02-24T15:09:01.491Z,12.42
2019-02-24T15:10:01.482Z,12.52
2019-02-24T15:11:01.466Z,12.42
2019-02-24T15:12:01.449Z,12.37
2019-02-24T15:13:01.461Z,12.31
2019-02-24T15:14:01.428Z,12.37
2019-02-24T15:15:01.417Z,12.27
2019-02-24T15:16:01.407Z,12.28
2019-02-24T15:17:01.395Z,12.14
2019-02-24T15:18:01.381Z,11.99
2019-02-24T15:19:01.375Z,11.99
2019-02-24T15:20:01.358Z,11.95
2019-02-24T15:21:01.346Z,11.98
2019-02-24T15:22:01.337Z,11.99
2019-02-24T15:23:01.319Z,11.91
2019-02-24T15:24:01.313Z,11.86
2019-02-24T15:25:01.296Z,11.83
2019-02-24T15:26:01.285Z,11.85
2019-02-24T15:27:01.274Z,11.75
2019-02-24T15:28:01.260Z,11.70
2019-02-24T15:29:01.252Z,11.69
2019-02-24T15:30:01.243Z,11.62
2019-02-24T15:31:01.226Z,11.55
2019-02-24T15:32:01.213Z,11.54
2019-02-24T15:33:01.197Z,11.58
2019-02-24T15:34:01.189Z,11.51